This is the latest recevied weather packets stored in our database for station/object HK6RM-16. If no packets are shown the sender has not sent any weather packets the latest 10 day(s).
| Time | Temp. | Humidity | Pressure | Rain* | Wind** | Luminosity | Snow |
|---|---|---|---|---|---|---|---|
| 1777762223 | 11.67° C | 94% | 1015 hPa | 0 mm | - | - | - |
| 1777761261 | 12.22° C | 94% | 1015 hPa | 0 mm | - | - | - |
| 1777760296 | 12.22° C | 94% | 1014 hPa | 0 mm | - | - | - |
| 1777759335 | 12.22° C | 94% | 1014 hPa | 0 mm | - | - | - |
| 1777758374 | 12.78° C | 94% | 1014 hPa | 0 mm | - | - | - |
| 1777757414 | 13.33° C | 95% | 1014 hPa | 0 mm | - | - | - |
| 1777756453 | 12.78° C | 94% | 1014 hPa | 0 mm | - | - | - |
| 1777755493 | 13.33° C | 94% | 1014 hPa | 0 mm | - | - | - |
| 1777754532 | 13.89° C | 92% | 1014 hPa | 0 mm | - | - | - |
| 1777753571 | 13.33° C | 89% | 1014 hPa | 0 mm | - | - | - |
| 1777752611 | 13.89° C | 90% | 1014 hPa | 0 mm | - | - | - |
| 1777751651 | 13.33° C | 85% | 1014 hPa | 0 mm | - | - | - |
| 1777750690 | 13.33° C | 84% | 1014 hPa | 0 mm | - | - | - |
| 1777749729 | 13.33° C | 82% | 1014 hPa | 0 mm | - | - | - |
| 1777748769 | 13.33° C | 82% | 1014 hPa | 0 mm | - | - | - |
| 1777747808 | 13.33° C | 81% | 1014 hPa | 0 mm | - | - | - |
| 1777746847 | 13.89° C | 81% | 1014 hPa | 0 mm | - | - | - |
| 1777745886 | 13.89° C | 81% | 1014 hPa | 0 mm | - | - | - |
| 1777744926 | 14.44° C | 81% | 1014 hPa | 0 mm | - | - | - |
| 1777743964 | 15° C | 81% | 1015 hPa | 0 mm | - | - | - |
| 1777743004 | 15.56° C | 81% | 1015 hPa | 0 mm | - | - | - |
| 1777742044 | 16.11° C | 81% | 1016 hPa | 0 mm | - | - | - |
| 1777741083 | 16.67° C | 81% | 1016 hPa | 0 mm | - | - | - |
| 1777740121 | 17.22° C | 81% | 1016 hPa | 0 mm | - | - | - |
| 1777739161 | 14.44° C | 77% | 1016 hPa | 0 mm | - | - | - |
* Rain latest hour (hover to see other rain measurements)
** Current wind speed in m/s (hover to see current wind gust speed)